Time;durP1;ratioP1;P1;durP2;ratioP2;P2;SDS_P1;SDS_P2;PMS_P1;PMS_P2;Temp;Humidity;BMP_temperature;BMP_pressure;BME280_temperature;BME280_humidity;BME280_pressure;Samples;Min_cycle;Max_cycle;Signal;HPM_P1;HPM_P2
2022/08/12 00:43:38;;;;;;;5.18;2.80;;;;;;;21.20;43.58;98492.97;5135653;27;20352;-91
2022/08/12 00:49:05;;;;;;;5.72;3.03;;;;;;;21.14;44.30;98493.44;5125701;27;20867;-90
2022/08/12 00:54:36;;;;;;;4.35;2.90;;;;;;;21.04;44.52;98485.16;5133340;27;20856;-91
2022/08/12 00:57:04;;;;;;;5.97;3.22;;;;;;;20.98;45.08;98476.66;5134038;27;20044;-92
2022/08/12 00:59:31;;;;;;;5.00;3.05;;;;;;;20.84;45.36;98477.66;5132021;27;20042;-89
2022/08/12 01:01:59;;;;;;;4.25;3.00;;;;;;;20.73;45.83;98478.44;5132841;27;20031;-91
2022/08/12 01:13:31;;;;;;;8.73;3.58;;;;;;;20.26;48.07;98498.94;5113713;27;20372;-93
2022/08/12 01:16:00;;;;;;;5.20;3.22;;;;;;;20.33;47.52;98494.81;5111111;28;20213;-91
2022/08/12 01:18:27;;;;;;;5.75;3.25;;;;;;;20.42;46.61;98496.00;5114608;28;20134;-90
2022/08/12 01:20:59;;;;;;;6.35;3.20;;;;;;;;;;5120083;28;20071;-90
2022/08/12 01:23:48;;;;;;;6.97;3.03;;;;;;;20.46;47.23;98511.88;5115512;28;20374;-90
2022/08/12 01:26:19;;;;;;;6.18;3.28;;;;;;;20.35;47.29;98505.53;5107629;28;20392;-89
2022/08/12 01:28:49;;;;;;;4.47;3.22;;;;;;;20.35;46.88;98487.47;5115416;28;20035;-91
2022/08/12 01:31:17;;;;;;;6.22;3.10;;;;;;;20.40;47.18;98506.03;5113743;28;20040;-90
2022/08/12 01:33:51;;;;;;;5.88;2.95;;;;;;;20.44;46.78;98507.56;5111344;28;20063;-91
2022/08/12 01:36:21;;;;;;;6.35;3.33;;;;;;;20.23;47.19;98489.22;5111955;28;20194;-89
2022/08/12 01:38:49;;;;;;;4.95;3.22;;;;;;;20.21;47.54;98498.38;5111462;28;20044;-90
2022/08/12 01:41:20;;;;;;;4.87;3.17;;;;;;;20.01;48.07;98489.84;5109264;28;20213;-92
2022/08/12 01:43:47;;;;;;;5.60;3.75;;;;;;;20.00;48.21;98487.28;5112966;28;20595;-92
2022/08/12 01:46:24;;;;;;;4.85;3.33;;;;;;;20.11;47.82;98487.38;5118949;28;20142;-91
2022/08/12 01:49:01;;;;;;;5.78;3.00;;;;;;;20.09;48.19;98495.59;5111521;28;20858;-91
2022/08/12 01:51:39;;;;;;;4.00;2.88;;;;;;;20.10;48.67;98485.63;5114499;28;20035;-92
2022/08/12 01:54:09;;;;;;;5.07;2.95;;;;;;;20.21;48.62;98491.16;5110986;28;20085;-89
2022/08/12 01:56:47;;;;;;;5.03;3.10;;;;;;;20.21;48.66;98484.88;5113501;28;20060;-90
2022/08/12 02:02:26;;;;;;;5.55;3.10;;;;;;;20.09;49.49;98483.94;5138026;27;20482;-90
2022/08/12 02:11:27;;;;;;;5.10;3.05;;;;;;;19.98;49.52;98495.47;5067782;27;20391;-91
2022/08/12 02:14:19;;;;;;;6.07;3.05;;;;;;;19.97;49.82;98495.56;5067095;28;20050;-90
2022/08/12 02:17:04;;;;;;;6.68;3.17;;;;;;;19.77;50.38;98465.44;5064272;28;20037;-90
2022/08/12 02:19:53;;;;;;;6.07;3.13;;;;;;;19.90;50.67;98482.50;5066639;28;20043;-91
2022/08/12 02:22:27;;;;;;;4.50;3.22;;;;;;;19.84;50.50;98468.56;5067553;28;20037;-92
2022/08/12 02:24:58;;;;;;;7.47;4.22;;;;;;;19.78;51.57;98469.88;5067295;28;20037;-93
2022/08/12 02:27:32;;;;;;;4.75;3.00;;;;;;;19.79;51.60;98470.75;5064971;28;20045;-91
2022/08/12 02:29:58;;;;;;;5.82;3.00;;;;;;;19.66;52.59;98476.09;5063923;28;20036;-91
2022/08/12 02:32:25;;;;;;;3.58;2.70;;;;;;;19.62;52.24;98474.56;5065783;28;20040;-91
2022/08/12 02:34:51;;;;;;;5.13;3.20;;;;;;;19.53;52.75;98465.28;5063863;28;20044;-90
2022/08/12 02:37:19;;;;;;;5.75;3.00;;;;;;;19.65;51.79;98464.44;5068588;28;20063;-92
2022/08/12 02:39:48;;;;;;;5.07;3.03;;;;;;;19.79;52.56;98468.03;5066202;28;20116;-91
2022/08/12 02:42:17;;;;;;;5.43;3.05;;;;;;;19.77;52.80;98464.59;5066540;28;20045;-90
2022/08/12 02:44:47;;;;;;;;;;;;;;;19.85;52.12;98463.09;5064814;28;20041;-90
2022/08/12 02:47:15;;;;;;;6.50;2.90;;;;;;;19.99;51.37;98451.31;5066548;28;19921;-90
2022/08/12 02:49:45;;;;;;;5.03;2.70;;;;;;;19.96;51.28;98447.97;5065247;28;20036;-90
2022/08/12 02:52:14;;;;;;;4.85;3.10;;;;;;;20.06;51.31;98465.22;5068461;28;20036;-91
2022/08/12 02:54:44;;;;;;;6.05;2.88;;;;;;;20.09;52.04;98457.78;5064454;28;20106;-91
2022/08/12 02:57:12;;;;;;;5.38;3.03;;;;;;;20.10;51.76;98461.34;5063951;28;20040;-91
2022/08/12 02:59:40;;;;;;;4.20;2.80;;;;;;;20.13;52.59;98455.75;5065889;28;20037;-91
2022/08/12 03:02:11;;;;;;;5.45;2.80;;;;;;;20.17;51.88;98454.56;5062646;28;20045;-91
2022/08/12 03:04:45;;;;;;;6.57;3.15;;;;;;;20.19;52.01;98458.00;5063694;28;20426;-91
2022/08/12 03:07:17;;;;;;;4.70;3.08;;;;;;;20.10;52.33;98462.22;5065270;28;20040;-89
2022/08/12 03:09:46;;;;;;;5.20;3.20;;;;;;;20.09;53.09;98454.22;5066327;28;20094;-91
2022/08/12 03:12:12;;;;;;;5.70;3.30;;;;;;;20.04;52.82;98461.81;5066273;28;20094;-91
2022/08/12 03:14:42;;;;;;;6.75;3.53;;;;;;;19.97;52.83;98460.50;5064352;28;20040;-93
2022/08/12 03:17:18;;;;;;;5.07;3.38;;;;;;;19.80;53.14;98451.75;5067073;28;20072;-92
2022/08/12 03:19:44;;;;;;;4.60;3.03;;;;;;;19.68;53.84;98447.19;5066827;28;21266;-92
2022/08/12 03:22:13;;;;;;;4.68;3.08;;;;;;;19.66;53.98;98468.00;5055410;28;20127;-91
2022/08/12 03:24:42;;;;;;;5.32;3.40;;;;;;;19.48;53.68;98448.56;5054056;28;20041;-91
2022/08/12 03:27:10;;;;;;;4.65;3.30;;;;;;;19.35;53.97;98447.69;5052832;28;20048;-92
2022/08/12 03:29:37;;;;;;;4.83;3.00;;;;;;;19.40;54.00;98464.41;5051814;28;20398;-92
2022/08/12 03:32:04;;;;;;;4.82;3.33;;;;;;;19.17;54.97;98455.16;5054019;28;20037;-90
2022/08/12 03:34:34;;;;;;;6.13;3.30;;;;;;;19.02;55.58;98447.16;5051367;28;20037;-91
2022/08/12 03:37:01;;;;;;;5.00;3.33;;;;;;;19.05;55.95;98451.47;5051706;28;20068;-91
2022/08/12 03:39:40;;;;;;;5.78;3.33;;;;;;;18.85;56.83;98448.25;5053936;28;20124;-92
2022/08/12 03:42:26;;;;;;;5.78;3.40;;;;;;;18.71;58.60;98463.56;5053006;28;20041;-92
2022/08/12 04:06:13;;;;;;;6.15;3.38;;;;;;;18.26;59.73;98450.28;5124964;27;20717;-94
2022/08/12 04:08:40;;;;;;;5.05;3.17;;;;;;;18.20;59.46;98445.28;5121385;27;20040;-93
2022/08/12 04:14:10;;;;;;;6.10;3.20;;;;;;;18.18;59.42;98434.63;5122638;27;20364;-91
2022/08/12 04:16:37;;;;;;;4.63;3.13;;;;;;;18.20;60.23;98443.47;5117814;27;20040;-92
2022/08/12 04:19:04;;;;;;;7.00;3.20;;;;;;;18.24;59.91;98436.06;5123746;28;20492;-91
2022/08/12 04:21:32;;;;;;;6.78;3.30;;;;;;;18.25;60.43;98453.94;5123445;28;20047;-92
2022/08/12 04:23:58;;;;;;;5.35;3.42;;;;;;;18.19;60.57;98435.47;5124443;28;20086;-90
2022/08/12 04:26:24;;;;;;;6.13;3.17;;;;;;;18.15;60.92;98433.94;5122284;28;20050;-92
2022/08/12 04:28:50;;;;;;;3.70;2.80;;;;;;;18.26;60.56;98450.28;5125973;27;20052;-92
2022/08/12 04:31:17;;;;;;;5.45;3.33;;;;;;;18.24;60.67;98450.38;5124082;28;20031;-93
2022/08/12 04:33:44;;;;;;;5.47;3.05;;;;;;;18.26;60.94;98453.84;5122838;27;20031;-92
2022/08/12 04:36:10;;;;;;;5.50;3.20;;;;;;;18.22;61.67;98436.16;5120836;27;20487;-93
2022/08/12 04:38:37;;;;;;;5.88;3.20;;;;;;;18.30;60.15;98449.09;5121002;28;20055;-90
2022/08/12 04:41:04;;;;;;;4.30;2.92;;;;;;;18.16;60.01;98441.06;5120699;28;20067;-91
2022/08/12 04:43:30;;;;;;;5.38;2.95;;;;;;;18.24;60.74;98452.22;5125380;27;20497;-90
2022/08/12 04:45:56;;;;;;;5.35;2.95;;;;;;;18.34;61.13;98465.94;5122584;28;20051;-92
2022/08/12 04:48:24;;;;;;;4.45;3.15;;;;;;;18.26;59.84;98435.00;5122882;27;20545;-93
2022/08/12 04:50:50;;;;;;;5.13;3.30;;;;;;;18.45;61.44;98450.84;5121823;28;20051;-91
2022/08/12 04:53:16;;;;;;;7.47;3.45;;;;;;;18.54;60.64;98448.50;5119747;28;20085;-91
2022/08/12 04:55:44;;;;;;;6.97;3.03;;;;;;;18.57;60.21;98451.88;5121609;27;20044;-90
2022/08/12 04:58:11;;;;;;;5.03;2.97;;;;;;;18.51;60.74;98446.00;5123088;28;20500;-90
2022/08/12 05:00:37;;;;;;;7.00;3.50;;;;;;;18.49;61.74;98454.19;5122548;27;20044;-91
2022/08/12 05:03:04;;;;;;;6.32;3.30;;;;;;;18.53;61.80;98450.34;5122549;27;20036;-92
2022/08/12 05:05:33;;;;;;;6.97;3.25;;;;;;;18.57;62.47;98446.47;5120942;27;20510;-90
2022/08/12 05:07:59;;;;;;;4.82;3.10;;;;;;;18.67;62.56;98428.75;5121441;28;20047;-91
2022/08/12 05:10:25;;;;;;;4.28;2.88;;;;;;;18.93;61.96;98428.03;5121424;27;20035;-90
2022/08/12 05:12:56;;;;;;;5.40;3.17;;;;;;;19.02;62.63;98430.97;5121439;27;20052;-91
2022/08/12 05:15:22;;;;;;;7.35;3.28;;;;;;;19.07;63.26;98433.38;5118527;28;20070;-91
2022/08/12 05:17:48;;;;;;;5.95;3.42;;;;;;;19.12;63.32;98428.50;5121598;27;20039;-90
2022/08/12 05:20:15;;;;;;;4.75;2.92;;;;;;;19.12;63.50;98419.56;5122039;27;20072;-92
2022/08/12 05:22:44;;;;;;;4.45;3.15;;;;;;;19.21;63.27;98419.78;5121522;27;20497;-92
2022/08/12 05:25:10;;;;;;;4.80;3.10;;;;;;;19.25;62.02;98424.00;5112890;28;20067;-90
2022/08/12 05:27:36;;;;;;;4.63;3.08;;;;;;;19.34;61.63;98449.47;5107463;28;20039;-92
2022/08/12 05:30:03;;;;;;;5.85;3.22;;;;;;;19.26;61.69;98451.88;5107608;28;20031;-92
2022/08/12 05:32:29;;;;;;;4.85;3.15;;;;;;;19.16;60.28;98437.28;5106680;28;20484;-91
2022/08/12 05:34:55;;;;;;;4.85;3.03;;;;;;;19.17;60.87;98428.19;5109999;28;20055;-92
2022/08/12 05:37:21;;;;;;;4.85;3.35;;;;;;;19.27;61.23;98451.75;5111641;28;20056;-91
2022/08/12 05:39:48;;;;;;;5.43;3.38;;;;;;;19.21;61.33;98437.81;5108649;28;20570;-93
2022/08/12 05:42:17;;;;;;;6.38;3.40;;;;;;;19.21;60.75;98445.91;5104366;28;20047;-91
2022/08/12 05:44:42;;;;;;;7.30;3.40;;;;;;;19.12;61.08;98430.34;5109782;28;20100;-91
2022/08/12 05:47:10;;;;;;;5.75;3.50;;;;;;;19.20;61.27;98441.50;5107112;28;20036;-91
2022/08/12 05:49:39;;;;;;;6.72;3.72;;;;;;;19.29;61.38;98454.34;5108194;28;20040;-93
2022/08/12 05:52:06;;;;;;;5.47;3.45;;;;;;;19.36;60.65;98452.94;5100864;28;20067;-92
2022/08/12 05:54:33;;;;;;;6.00;3.60;;;;;;;19.40;59.32;98450.91;5107402;28;20040;-92
2022/08/12 05:57:00;;;;;;;8.73;3.60;;;;;;;19.33;58.15;98447.78;5104883;28;20050;-91
2022/08/12 05:59:26;;;;;;;7.03;3.70;;;;;;;19.45;57.41;98455.03;5105069;28;20032;-94
2022/08/12 06:01:57;;;;;;;6.38;3.70;;;;;;;19.55;56.94;98447.16;5105660;27;20046;-94
2022/08/12 06:04:23;;;;;;;7.50;3.95;;;;;;;20.07;55.29;98426.47;5106624;28;20035;-90
2022/08/12 06:06:52;;;;;;;7.30;3.70;;;;;;;20.69;55.67;98440.00;5106264;27;20827;-89
2022/08/12 06:09:17;;;;;;;;;;;;;;;21.27;52.92;98447.41;5105383;28;20058;-90
2022/08/12 06:11:46;;;;;;;7.10;3.50;;;;;;;21.56;51.75;98442.50;5108373;28;19923;-90
2022/08/12 06:14:14;;;;;;;5.10;3.33;;;;;;;21.76;51.51;98438.25;5106776;28;20048;-90
2022/08/12 06:16:40;;;;;;;7.63;3.78;;;;;;;22.04;50.95;98458.59;5106589;28;20407;-90
2022/08/12 06:19:07;;;;;;;7.00;3.70;;;;;;;22.12;50.78;98436.31;5106024;28;20044;-90
2022/08/12 06:21:33;;;;;;;9.15;3.75;;;;;;;21.90;51.77;98458.81;5104493;28;20039;-90
2022/08/12 06:24:00;;;;;;;6.90;3.65;;;;;;;21.83;52.07;98463.84;5104657;28;20040;-90
2022/08/12 06:26:26;;;;;;;7.95;3.60;;;;;;;21.65;53.20;98463.44;5105975;28;20400;-91
2022/08/12 06:28:53;;;;;;;7.28;3.50;;;;;;;21.48;53.74;98462.03;5107453;28;20036;-90
2022/08/12 06:31:20;;;;;;;8.65;3.90;;;;;;;21.31;54.49;98457.88;5098644;28;20090;-89
2022/08/12 06:33:48;;;;;;;6.53;3.63;;;;;;;21.26;56.42;98467.31;5107422;28;20532;-90
2022/08/12 06:36:16;;;;;;;13.30;4.20;;;;;;;21.18;56.60;98457.06;5107129;28;20392;-90
2022/08/12 06:38:43;;;;;;;18.35;4.75;;;;;;;21.10;56.17;98459.47;5105557;28;20046;-90
2022/08/12 06:44:05;;;;;;;27.67;5.05;;;;;;;21.17;57.16;98468.03;5134296;27;20387;-90
2022/08/12 06:46:31;;;;;;;16.33;4.97;;;;;;;21.33;57.47;98446.94;5108420;28;20725;-89
2022/08/12 06:48:57;;;;;;;12.45;4.53;;;;;;;21.82;55.02;98463.97;5117869;28;20048;-92
2022/08/12 06:51:24;;;;;;;14.60;4.70;;;;;;;22.24;54.75;98458.88;5115479;28;20090;-89
2022/08/12 06:53:51;;;;;;;10.98;3.92;;;;;;;22.56;53.85;98443.59;5112916;28;20032;-91
2022/08/12 06:56:16;;;;;;;11.32;4.47;;;;;;;23.06;52.61;98450.44;5117049;28;20032;-92
2022/08/12 06:58:43;;;;;;;10.70;3.80;;;;;;;23.42;52.55;98457.31;5116340;28;20152;-87
2022/08/12 07:01:11;;;;;;;13.50;4.30;;;;;;;23.86;51.92;98463.53;5114234;28;20054;-90
2022/08/12 07:03:37;;;;;;;6.78;3.53;;;;;;;24.08;49.97;98464.38;5112789;28;20028;-92
2022/08/12 07:06:05;;;;;;;9.57;3.67;;;;;;;24.40;51.10;98450.66;5111959;28;20736;-90
2022/08/12 07:08:32;;;;;;;5.70;3.60;;;;;;;24.72;49.80;98453.25;5113268;28;20489;-91
2022/08/12 07:11:00;;;;;;;9.02;3.33;;;;;;;24.92;48.54;98439.69;5110509;27;20074;-90
2022/08/12 07:13:29;;;;;;;6.07;3.47;;;;;;;24.95;47.06;98431.22;5114676;28;20035;-92
2022/08/12 07:15:57;;;;;;;5.60;3.22;;;;;;;25.20;47.46;98435.31;5113699;28;20401;-89
2022/08/12 07:18:32;;;;;;;4.53;3.00;;;;;;;25.21;46.62;98443.31;5110678;28;20062;-87
2022/08/12 07:21:00;;;;;;;7.57;3.95;;;;;;;25.15;47.14;98435.69;5111397;28;20036;-91
2022/08/12 07:23:26;;;;;;;5.20;3.27;;;;;;;25.28;46.49;98442.75;5112230;28;20051;-88
2022/08/12 07:25:52;;;;;;;5.95;3.38;;;;;;;25.23;45.97;98435.00;5114596;28;20050;-88
2022/08/12 07:28:22;;;;;;;4.70;2.97;;;;;;;25.47;45.08;98445.47;5111059;28;20036;-89
2022/08/12 07:30:50;;;;;;;5.85;3.15;;;;;;;25.24;46.44;98444.03;5115473;28;20046;-88
2022/08/12 07:33:17;;;;;;;10.43;3.40;;;;;;;25.35;45.86;98442.03;5111541;28;20039;-87
2022/08/12 07:35:46;;;;;;;4.40;3.20;;;;;;;25.32;45.58;98444.19;5115629;28;20055;-89
2022/08/12 07:38:23;;;;;;;7.45;3.30;;;;;;;25.37;45.18;98436.44;5112108;28;20036;-89
2022/08/12 07:40:50;;;;;;;5.05;2.85;;;;;;;25.67;45.05;98440.00;5112185;28;20055;-89
2022/08/12 07:43:16;;;;;;;5.07;3.35;;;;;;;25.69;44.30;98451.63;5112663;28;20044;-90
2022/08/12 07:45:42;;;;;;;6.57;3.30;;;;;;;25.53;45.22;98436.72;5113338;28;20039;-88
2022/08/12 07:48:08;;;;;;;3.90;3.00;;;;;;;25.62;43.49;98433.13;5114034;28;20144;-92
2022/08/12 07:50:33;;;;;;;4.07;3.30;;;;;;;25.89;43.74;98434.25;5112930;28;20489;-92
2022/08/12 07:53:01;;;;;;;4.75;3.05;;;;;;;26.03;42.81;98447.41;5112792;27;20039;-90
2022/08/12 07:55:27;;;;;;;7.27;3.10;;;;;;;25.59;44.23;98440.72;5097640;28;20843;-91
2022/08/12 07:57:58;;;;;;;6.78;3.25;;;;;;;25.79;43.94;98436.13;5095664;28;20032;-90
2022/08/12 08:00:25;;;;;;;4.80;3.03;;;;;;;26.20;43.54;98448.53;5099096;28;20044;-89
2022/08/12 08:02:53;;;;;;;5.68;3.08;;;;;;;25.97;43.50;98438.97;5098937;28;20031;-89
2022/08/12 08:05:19;;;;;;;5.65;3.38;;;;;;;26.06;42.84;98435.38;5095021;28;20729;-90
2022/08/12 08:07:45;;;;;;;4.25;2.80;;;;;;;26.08;43.50;98443.41;5100377;28;20400;-92
2022/08/12 08:10:13;;;;;;;5.10;3.35;;;;;;;26.28;43.07;98442.31;5101790;28;20040;-90
2022/08/12 08:15:35;;;;;;;6.60;3.42;;;;;;;26.64;40.91;98456.97;5133412;27;20367;-90
2022/08/12 08:18:03;;;;;;;4.82;3.20;;;;;;;26.80;40.25;98450.00;5134085;27;20056;-88
2022/08/12 08:20:32;;;;;;;7.63;3.30;;;;;;;26.71;40.76;98449.03;5134470;27;20063;-88
2022/08/12 08:23:04;;;;;;;5.50;2.95;;;;;;;26.82;40.21;98429.72;5131047;27;20032;-89
2022/08/12 08:25:30;;;;;;;5.88;3.05;;;;;;;26.83;39.89;98447.84;5135405;27;20047;-91
2022/08/12 08:27:58;;;;;;;4.43;3.00;;;;;;;26.64;40.06;98428.84;5135234;27;20415;-89
2022/08/12 08:30:25;;;;;;;6.07;3.08;;;;;;;27.22;39.07;98442.16;5133579;27;20096;-89
2022/08/12 08:32:52;;;;;;;5.93;3.42;;;;;;;26.59;40.35;98444.81;5136040;27;20062;-89
2022/08/12 08:35:18;;;;;;;4.68;3.20;;;;;;;26.63;40.36;98441.63;5130523;27;20373;-88
2022/08/12 08:37:45;;;;;;;5.57;3.15;;;;;;;26.82;40.05;98434.34;5133744;27;20364;-87
2022/08/12 08:43:06;;;;;;;5.28;3.40;;;;;;;26.87;38.45;98450.25;5137192;27;20379;-89
2022/08/12 08:45:32;;;;;;;4.72;2.85;;;;;;;26.47;38.77;98445.97;5135380;27;20067;-88
2022/08/12 08:47:59;;;;;;;6.15;2.88;;;;;;;26.90;39.71;98453.53;5133441;27;20054;-89
2022/08/12 08:50:25;;;;;;;5.35;3.50;;;;;;;27.30;37.73;98444.09;5126503;27;21130;-87
2022/08/12 08:52:51;;;;;;;4.20;3.03;;;;;;;27.35;37.82;98443.66;5135017;27;20127;-91
2022/08/12 08:55:17;;;;;;;5.35;3.10;;;;;;;27.66;37.39;98464.06;5132158;27;20546;-88
2022/08/12 08:57:48;;;;;;;4.97;2.90;;;;;;;27.98;37.21;98465.38;5131844;27;20747;-88
2022/08/12 09:00:17;;;;;;;8.60;3.20;;;;;;;28.53;35.06;98452.41;5133280;27;20048;-88
2022/08/12 09:02:44;;;;;;;4.68;2.85;;;;;;;28.60;35.35;98453.44;5134490;27;20091;-91
2022/08/12 09:05:10;;;;;;;4.57;2.97;;;;;;;28.83;34.81;98467.41;5136823;27;20039;-90
2022/08/12 09:07:42;;;;;;;7.53;2.97;;;;;;;28.19;35.34;98458.66;5132968;27;20497;-89
2022/08/12 09:10:08;;;;;;;6.15;3.20;;;;;;;28.63;34.11;98470.41;5133296;27;20553;-87
2022/08/12 09:15:28;;;;;;;5.78;3.42;;;;;;;29.11;33.87;98456.25;5125611;27;20395;-88
2022/08/12 09:17:55;;;;;;;4.68;2.92;;;;;;;29.11;35.64;98451.63;5125341;28;20169;-89
2022/08/12 09:20:23;;;;;;;4.40;3.08;;;;;;;29.29;33.32;98443.25;5117719;28;20057;-90
2022/08/12 09:22:49;;;;;;;5.55;3.15;;;;;;;29.08;33.33;98443.69;5123965;28;20043;-90
2022/08/12 09:25:16;;;;;;;5.93;3.17;;;;;;;29.45;33.93;98453.38;5121245;28;20036;-90
2022/08/12 09:27:42;;;;;;;4.47;2.85;;;;;;;29.62;32.87;98460.56;5119176;28;20047;-90
2022/08/12 09:30:14;;;;;;;5.60;2.97;;;;;;;29.79;31.49;98450.50;5122928;27;20040;-92
2022/08/12 09:32:42;;;;;;;5.18;3.40;;;;;;;28.92;32.72;98446.41;5121591;28;20093;-90
2022/08/12 09:35:08;;;;;;;;;;;;;;;29.08;32.16;98454.63;5125810;28;20031;-89
2022/08/12 09:37:34;;;;;;;3.90;3.40;;;;;;;29.08;30.23;98430.00;5118861;28;20369;-91
2022/08/12 09:40:00;;;;;;;10.45;3.63;;;;;;;28.93;30.92;98431.66;5119514;28;20040;-89
2022/08/12 09:45:29;;;;;;;4.60;3.33;;;;;;;28.59;30.72;98441.66;5123081;27;20374;-92
2022/08/12 09:47:55;;;;;;;3.97;3.00;;;;;;;28.31;31.43;98443.69;5090606;28;20052;-94
2022/08/12 09:50:21;;;;;;;5.30;3.50;;;;;;;28.12;31.02;98438.47;5089516;28;20058;-94
2022/08/12 09:53:02;;;;;;;4.78;3.13;;;;;;;27.93;30.83;98431.31;5088925;28;20044;-94
2022/08/12 09:55:28;;;;;;;4.82;3.40;;;;;;;28.61;28.85;98441.50;5088926;28;20068;-92
2022/08/12 09:57:54;;;;;;;5.07;3.45;;;;;;;28.11;29.77;98442.22;5089952;28;20043;-93
2022/08/12 10:00:26;;;;;;;4.22;3.30;;;;;;;28.76;30.51;98434.38;5089998;28;20036;-92
2022/08/12 10:03:02;;;;;;;5.28;3.47;;;;;;;29.22;29.61;98432.13;5091732;28;20048;-91
2022/08/12 10:05:32;;;;;;;6.40;3.70;;;;;;;29.51;29.23;98419.81;5091897;28;20051;-92
2022/08/12 10:07:59;;;;;;;5.68;3.13;;;;;;;29.67;29.74;98424.47;5090158;28;20497;-95
2022/08/12 10:10:26;;;;;;;4.63;3.23;;;;;;;29.13;29.91;98435.88;5090082;28;20046;-93
2022/08/12 10:16:01;;;;;;;5.72;2.90;;;;;;;28.87;30.68;98435.94;5134831;27;20363;-93
2022/08/12 10:18:31;;;;;;;4.68;3.15;;;;;;;28.68;31.26;98424.25;5133187;27;20049;-92
2022/08/12 10:20:58;;;;;;;5.00;3.30;;;;;;;28.85;29.46;98416.94;5135200;27;20036;-91
2022/08/12 10:23:24;;;;;;;4.90;3.15;;;;;;;29.26;29.29;98419.81;5133092;27;20092;-90
2022/08/12 10:32:05;;;;;;;4.85;3.30;;;;;;;29.62;27.71;98415.88;5126867;27;20734;-89
2022/08/12 10:34:31;;;;;;;4.70;3.05;;;;;;;29.23;28.28;98401.00;5123079;28;20067;-89
2022/08/12 10:36:59;;;;;;;4.60;3.08;;;;;;;28.97;29.49;98406.53;5123800;27;20043;-89
2022/08/12 10:39:31;;;;;;;4.85;3.20;;;;;;;29.37;28.92;98409.56;5119921;28;20400;-91
2022/08/12 10:45:01;;;;;;;4.25;3.00;;;;;;;30.12;28.12;98408.47;5110554;27;20381;-91
2022/08/12 10:47:29;;;;;;;5.65;3.08;;;;;;;30.13;27.74;98393.75;5110861;28;20127;-94
2022/08/12 10:49:55;;;;;;;5.38;3.40;;;;;;;30.38;27.25;98389.06;5109343;28;20068;-90
2022/08/12 10:52:25;;;;;;;4.57;3.10;;;;;;;30.27;28.80;98374.66;5109781;28;20035;-94
2022/08/12 10:54:51;;;;;;;4.72;3.10;;;;;;;29.12;28.84;98381.28;5109810;28;20120;-90
2022/08/12 10:57:19;;;;;;;6.13;3.00;;;;;;;28.72;29.61;98374.69;5109424;28;20459;-91
2022/08/12 10:59:45;;;;;;;3.90;3.00;;;;;;;28.73;29.19;98376.38;5109020;28;20036;-91
2022/08/12 11:02:13;;;;;;;6.90;3.20;;;;;;;28.88;29.54;98364.59;5109468;28;20040;-93
2022/08/12 11:04:40;;;;;;;4.57;3.20;;;;;;;29.24;29.22;98379.94;5109611;28;20039;-90
2022/08/12 11:07:06;;;;;;;5.22;3.20;;;;;;;28.89;29.82;98362.75;5109549;28;20051;-90
2022/08/12 11:09:33;;;;;;;4.80;3.00;;;;;;;28.63;31.35;98355.50;5108173;28;20097;-93
2022/08/12 11:12:05;;;;;;;4.32;3.10;;;;;;;28.70;30.29;98357.56;5109155;28;20079;-91
2022/08/12 11:14:32;;;;;;;4.70;3.47;;;;;;;28.79;29.78;98362.03;5109093;28;20528;-91
2022/08/12 11:17:00;;;;;;;4.43;2.75;;;;;;;28.92;29.25;98356.06;5107900;28;20043;-92
2022/08/12 11:19:29;;;;;;;5.65;2.83;;;;;;;29.18;29.73;98342.28;5108450;28;20119;-90
2022/08/12 11:21:55;;;;;;;4.72;2.90;;;;;;;29.07;28.16;98332.47;5107340;28;20043;-93
2022/08/12 11:24:22;;;;;;;5.85;2.88;;;;;;;28.76;29.03;98343.22;5108751;28;20123;-93
2022/08/12 11:26:49;;;;;;;5.78;2.70;;;;;;;29.15;28.24;98343.47;5109987;28;20042;-92
2022/08/12 11:29:15;;;;;;;3.67;2.70;;;;;;;29.22;29.92;98349.13;5110148;28;20040;-89
2022/08/12 11:31:41;;;;;;;4.68;2.60;;;;;;;29.52;29.50;98349.47;5109438;28;20483;-94
2022/08/12 11:34:07;;;;;;;4.13;3.13;;;;;;;29.53;29.11;98326.50;5109236;28;20142;-90
2022/08/12 11:36:34;;;;;;;3.95;2.90;;;;;;;29.91;27.67;98355.06;5108348;28;20039;-91
2022/08/12 11:39:00;;;;;;;3.30;2.63;;;;;;;30.01;26.37;98343.91;5108845;28;20113;-92
2022/08/12 11:41:26;;;;;;;4.47;2.55;;;;;;;29.69;28.37;98352.03;5109144;28;20435;-91
2022/08/12 11:43:52;;;;;;;4.22;2.80;;;;;;;29.85;31.38;98350.28;5108377;28;20048;-92
2022/08/12 11:46:18;;;;;;;4.70;2.72;;;;;;;29.14;31.38;98340.91;5109366;28;20036;-92
2022/08/12 11:48:44;;;;;;;5.30;3.03;;;;;;;29.54;30.31;98347.38;5110334;28;20047;-94
2022/08/12 11:51:10;;;;;;;4.60;2.67;;;;;;;29.77;30.57;98345.66;5110157;28;20035;-92
2022/08/12 11:53:37;;;;;;;5.22;2.55;;;;;;;29.49;31.02;98335.09;5107664;28;20036;-93
2022/08/12 11:56:05;;;;;;;4.47;2.70;;;;;;;28.62;32.11;98325.56;5095534;28;20043;-90
2022/08/12 11:58:32;;;;;;;4.93;3.05;;;;;;;28.59;32.42;98331.38;5095572;28;20498;-91
2022/08/12 12:00:58;;;;;;;5.72;2.97;;;;;;;27.63;32.67;98335.16;5095052;28;20072;-90
2022/08/12 12:03:24;;;;;;;4.25;2.80;;;;;;;27.49;32.95;98339.28;5094527;28;20493;-92
2022/08/12 12:05:50;;;;;;;3.85;2.40;;;;;;;27.61;33.27;98332.56;5094941;28;20056;-92
2022/08/12 12:08:20;;;;;;;3.85;2.58;;;;;;;28.22;31.69;98319.75;5094365;28;20149;-91
2022/08/12 12:10:48;;;;;;;4.22;3.10;;;;;;;28.61;30.13;98313.75;5095623;28;20044;-90
2022/08/12 12:13:13;;;;;;;4.70;2.70;;;;;;;28.94;30.68;98318.44;5095611;28;20032;-92
2022/08/12 12:15:39;;;;;;;3.50;2.65;;;;;;;29.33;29.45;98321.38;5095824;28;20047;-91
2022/08/12 12:18:05;;;;;;;4.45;2.92;;;;;;;29.58;30.62;98316.75;5096363;28;20036;-90
2022/08/12 12:20:33;;;;;;;5.18;2.80;;;;;;;29.33;30.32;98309.59;5096512;28;20032;-93
2022/08/12 12:22:59;;;;;;;4.25;2.80;;;;;;;29.07;30.42;98311.41;5096725;28;20032;-92
2022/08/12 12:25:25;;;;;;;4.85;2.85;;;;;;;28.80;31.38;98322.69;5092747;28;20094;-91
2022/08/12 12:27:53;;;;;;;3.45;2.63;;;;;;;28.38;31.91;98321.69;5093869;28;20052;-90
2022/08/12 12:30:19;;;;;;;4.95;3.20;;;;;;;28.85;30.98;98326.63;5091374;28;20038;-92
2022/08/12 12:32:46;;;;;;;3.67;2.70;;;;;;;29.05;30.60;98304.41;5091051;28;20178;-92
2022/08/12 12:35:12;;;;;;;3.58;2.70;;;;;;;29.34;30.55;98320.34;5092944;28;20893;-91
2022/08/12 12:37:55;;;;;;;3.72;2.63;;;;;;;29.69;29.12;98312.81;5093265;28;20040;-90
2022/08/12 12:40:22;;;;;;;4.40;2.72;;;;;;;29.59;28.47;98312.97;5092717;28;20420;-89
2022/08/12 12:42:48;;;;;;;3.65;2.60;;;;;;;29.34;28.58;98311.28;5092324;28;20881;-91
2022/08/12 12:45:17;;;;;;;4.63;2.70;;;;;;;29.65;29.23;98298.56;5092933;28;20048;-90
2022/08/12 12:47:54;;;;;;;4.07;2.90;;;;;;;29.69;28.29;98321.88;5093077;28;20523;-93
2022/08/12 12:50:20;;;;;;;3.35;2.38;;;;;;;28.93;29.00;98301.16;5092964;28;20048;-90
2022/08/12 12:52:46;;;;;;;3.80;2.40;;;;;;;29.46;28.99;98307.16;5092665;28;20119;-90
2022/08/12 12:55:15;;;;;;;4.00;2.70;;;;;;;29.67;28.49;98309.38;5092833;28;20118;-92
2022/08/12 12:57:41;;;;;;;;;;;;;;;29.95;28.62;98317.19;5093245;28;20036;-91
2022/08/12 13:00:16;;;;;;;4.13;2.90;;;;;;;30.11;28.46;98314.41;5094122;28;19920;-90
2022/08/12 13:02:50;;;;;;;5.03;2.65;;;;;;;30.06;28.19;98309.44;5092935;28;20036;-90
2022/08/12 13:05:16;;;;;;;4.07;2.70;;;;;;;29.74;29.01;98299.44;5092519;28;20054;-92
2022/08/12 13:07:43;;;;;;;3.50;2.60;;;;;;;29.90;29.23;98306.75;5091518;28;20135;-91
2022/08/12 13:16:19;;;;;;;3.80;2.70;;;;;;;29.16;30.77;98308.72;5159520;27;20414;-89
2022/08/12 13:18:48;;;;;;;3.45;2.70;;;;;;;29.15;30.98;98313.34;5131477;27;20133;-93
2022/08/12 13:21:17;;;;;;;4.95;2.60;;;;;;;28.62;31.65;98314.63;5126671;27;20036;-95
2022/08/12 13:23:45;;;;;;;4.28;2.58;;;;;;;28.94;32.43;98311.06;5126498;27;20035;-92
2022/08/12 13:26:14;;;;;;;4.15;3.00;;;;;;;29.28;31.66;98321.06;5129862;27;20497;-91
2022/08/12 13:28:44;;;;;;;5.53;2.67;;;;;;;29.06;31.65;98323.41;5125115;28;20031;-93
2022/08/12 13:31:16;;;;;;;6.38;3.13;;;;;;;28.56;32.21;98309.81;5128809;27;20043;-92
2022/08/12 13:33:45;;;;;;;4.55;2.65;;;;;;;28.64;32.33;98313.41;5124245;27;20484;-91
2022/08/12 13:36:11;;;;;;;4.30;2.70;;;;;;;28.89;31.65;98316.22;5129288;27;20050;-91
2022/08/12 13:41:35;;;;;;;5.38;2.92;;;;;;;28.94;31.21;98316.56;5131577;27;20142;-89
2022/08/12 13:44:04;;;;;;;4.28;2.67;;;;;;;28.81;30.82;98314.31;5134836;27;20074;-90
2022/08/12 13:46:33;;;;;;;4.63;2.80;;;;;;;28.97;30.93;98329.03;5137224;27;20058;-92